Time;durP1;ratioP1;P1;durP2;ratioP2;P2;SDS_P1;SDS_P2;PMS_P1;PMS_P2;Temp;Humidity;BMP_temperature;BMP_pressure;BME280_temperature;BME280_humidity;BME280_pressure;Samples;Min_cycle;Max_cycle;Signal;HPM_P1;HPM_P2
2021/03/30 00:02:04;;;;;;;15.55;10.40;;;;;;;7.96;80.32;99445.41;5112621;28;20392;-79
2021/03/30 00:04:29;;;;;;;19.15;10.27;;;;;;;8.02;79.86;99439.81;5113002;28;20035;-78
2021/03/30 00:06:55;;;;;;;15.73;9.98;;;;;;;8.08;79.91;99454.41;5112921;28;20012;-79
2021/03/30 00:09:20;;;;;;;16.83;9.93;;;;;;;7.93;80.34;99440.44;5112899;28;20396;-79
2021/03/30 00:11:45;;;;;;;14.50;9.43;;;;;;;7.94;80.43;99433.94;5112887;28;20030;-78
2021/03/30 00:14:11;;;;;;;13.93;10.30;;;;;;;7.83;81.04;99432.09;5112094;28;20078;-78
2021/03/30 00:16:36;;;;;;;14.30;9.13;;;;;;;7.68;82.14;99426.28;5112924;28;20032;-79
2021/03/30 00:19:02;;;;;;;16.98;10.50;;;;;;;7.68;82.22;99429.00;5113721;28;20491;-80
2021/03/30 00:21:27;;;;;;;18.33;9.80;;;;;;;7.68;82.33;99438.03;5114810;28;20043;-78
2021/03/30 00:23:53;;;;;;;19.38;12.00;;;;;;;7.78;82.20;99424.63;5115552;28;20023;-76
2021/03/30 00:26:18;;;;;;;16.00;10.13;;;;;;;7.64;82.12;99423.25;5116738;28;20024;-79
2021/03/30 00:28:44;;;;;;;18.35;11.30;;;;;;;7.57;83.01;99428.00;5117717;28;20055;-82
2021/03/30 00:31:09;;;;;;;17.08;10.73;;;;;;;7.58;83.20;99423.38;5096522;28;20030;-81
2021/03/30 00:33:35;;;;;;;18.80;10.30;;;;;;;7.48;83.58;99421.25;5095276;28;20059;-80
2021/03/30 00:36:00;;;;;;;18.80;9.98;;;;;;;7.57;83.56;99424.44;5095641;28;20389;-78
2021/03/30 00:38:26;;;;;;;19.65;11.55;;;;;;;7.47;83.44;99414.97;5113916;28;20092;-80
2021/03/30 00:40:52;;;;;;;16.65;11.00;;;;;;;7.57;83.12;99405.38;5114163;28;20032;-79
2021/03/30 00:43:18;;;;;;;15.80;9.13;;;;;;;7.51;82.85;99401.72;5099262;28;20096;-78
2021/03/30 00:45:44;;;;;;;20.92;10.73;;;;;;;7.61;81.99;99403.84;5117851;28;20036;-78
2021/03/30 00:48:21;;;;;;;12.57;9.20;;;;;;;7.44;83.18;99415.47;5117115;28;20026;-81
2021/03/30 00:50:46;;;;;;;17.98;9.82;;;;;;;7.37;83.60;99414.75;5099226;28;20028;-81
2021/03/30 00:53:11;;;;;;;14.75;9.82;;;;;;;7.27;84.04;99408.25;5117883;28;20035;-78
2021/03/30 00:55:37;;;;;;;15.32;10.88;;;;;;;7.22;84.57;99400.81;5099145;28;20035;-79
2021/03/30 00:58:02;;;;;;;14.85;9.77;;;;;;;7.32;84.30;99400.22;5094783;28;20110;-78
2021/03/30 01:00:28;;;;;;;18.02;11.35;;;;;;;7.33;84.18;99399.97;5094155;28;20036;-78
2021/03/30 01:02:53;;;;;;;19.17;12.75;;;;;;;7.23;84.52;99397.03;5112454;28;20026;-77
2021/03/30 01:05:19;;;;;;;16.55;10.05;;;;;;;7.21;84.74;99393.69;5112517;28;20110;-78
2021/03/30 01:08:16;;;;;;;16.55;10.50;;;;;;;7.26;84.71;99385.69;5093644;28;20504;-77
2021/03/30 01:11:27;;;;;;;16.60;11.13;;;;;;;7.12;85.40;99402.47;5094538;28;20088;-80
2021/03/30 01:14:18;;;;;;;23.00;13.18;;;;;;;7.05;85.75;99405.31;5034833;28;20040;-77
2021/03/30 01:16:51;;;;;;;21.98;11.98;;;;;;;6.94;86.66;99406.97;5113298;28;20026;-79
2021/03/30 01:19:25;;;;;;;22.48;12.05;;;;;;;7.04;86.82;99405.56;5112296;28;20046;-77
2021/03/30 01:22:12;;;;;;;27.08;13.38;;;;;;;6.99;86.60;99401.66;5112686;28;20477;-77
2021/03/30 01:24:41;;;;;;;16.48;11.80;;;;;;;6.99;86.59;99398.91;5093738;28;20104;-79
2021/03/30 01:27:26;;;;;;;19.48;12.77;;;;;;;6.91;86.51;99399.28;5114432;28;20027;-78
2021/03/30 01:29:54;;;;;;;20.88;12.50;;;;;;;6.84;87.01;99398.56;5097561;28;20023;-79
2021/03/30 01:32:28;;;;;;;20.23;12.15;;;;;;;6.93;86.96;99402.59;5097385;28;20030;-77
2021/03/30 01:34:56;;;;;;;17.60;11.75;;;;;;;6.91;86.71;99388.41;5097293;28;20131;-78
2021/03/30 01:37:23;;;;;;;20.27;13.32;;;;;;;6.97;86.38;99403.78;5097632;28;20051;-77
2021/03/30 01:39:53;;;;;;;16.67;12.00;;;;;;;7.01;86.28;99404.16;5097141;28;20028;-80
2021/03/30 01:42:22;;;;;;;21.08;12.32;;;;;;;6.89;86.52;99404.13;5097770;28;20019;-77
2021/03/30 01:44:48;;;;;;;26.10;13.02;;;;;;;6.91;86.48;99393.84;5115336;28;20032;-78
2021/03/30 01:47:14;;;;;;;17.27;11.95;;;;;;;6.75;87.26;99410.03;5096992;28;20020;-77
2021/03/30 01:49:40;;;;;;;22.77;11.43;;;;;;;6.63;87.82;99401.03;5115814;28;20540;-79
2021/03/30 01:52:09;;;;;;;20.73;12.35;;;;;;;6.69;87.59;99405.53;5115470;28;20039;-78
2021/03/30 01:54:37;;;;;;;21.40;11.45;;;;;;;6.76;87.59;99408.97;5115561;28;20088;-79
2021/03/30 01:57:05;;;;;;;20.27;11.82;;;;;;;6.81;87.24;99407.19;5097211;28;20035;-78
2021/03/30 01:59:32;;;;;;;21.90;13.68;;;;;;;6.85;86.91;99400.22;5115106;28;20480;-79
2021/03/30 02:02:01;;;;;;;21.48;12.15;;;;;;;6.91;86.78;99402.00;5114856;28;20099;-78
2021/03/30 02:04:28;;;;;;;16.02;10.90;;;;;;;6.88;86.47;99393.50;5114824;28;20027;-79
2021/03/30 02:06:54;;;;;;;22.05;13.00;;;;;;;6.76;87.21;99400.81;5114610;28;20114;-77
2021/03/30 02:09:26;;;;;;;18.70;11.25;;;;;;;6.75;87.55;99394.53;5114662;28;20115;-78
2021/03/30 02:11:59;;;;;;;19.23;11.60;;;;;;;6.60;88.09;99402.34;5096749;28;20361;-79
2021/03/30 02:14:24;;;;;;;18.75;12.52;;;;;;;6.63;88.25;99398.31;5114266;28;20027;-79
2021/03/30 02:17:33;;;;;;;19.92;11.70;;;;;;;6.52;88.71;99401.81;5114743;28;20023;-78
2021/03/30 02:20:21;;;;;;;30.55;13.43;;;;;;;6.40;89.20;99418.09;5076580;28;20028;-81
2021/03/30 02:23:00;;;;;;;17.60;10.80;;;;;;;6.47;88.78;99414.25;5100039;28;20115;-78
2021/03/30 02:25:28;;;;;;;21.52;12.93;;;;;;;6.45;88.91;99413.63;5116934;28;20031;-77
2021/03/30 02:27:55;;;;;;;18.75;11.35;;;;;;;6.46;88.82;99411.75;5114488;28;20028;-77
2021/03/30 02:30:23;;;;;;;18.85;12.40;;;;;;;6.36;89.14;99415.03;5114994;28;20020;-79
2021/03/30 02:32:51;;;;;;;22.73;11.60;;;;;;;6.43;88.72;99412.22;5096370;28;20503;-79
2021/03/30 02:35:19;;;;;;;16.17;10.93;;;;;;;6.34;89.09;99398.13;5108592;28;20105;-77
2021/03/30 02:37:46;;;;;;;15.38;10.27;;;;;;;6.37;88.80;99413.97;5066344;28;20044;-77
2021/03/30 02:40:15;;;;;;;19.75;12.02;;;;;;;6.41;88.22;99398.88;5113206;28;20032;-77
2021/03/30 02:42:42;;;;;;;16.88;11.02;;;;;;;6.45;88.01;99401.94;5095168;28;20015;-79
2021/03/30 02:45:10;;;;;;;18.50;10.88;;;;;;;6.50;87.85;99406.66;5095279;28;20098;-78
2021/03/30 02:47:38;;;;;;;20.80;11.70;;;;;;;6.56;86.96;99413.88;5095633;28;20023;-78
2021/03/30 02:50:05;;;;;;;15.13;10.85;;;;;;;6.52;86.50;99412.69;5113734;28;20055;-79
2021/03/30 02:52:33;;;;;;;19.42;11.27;;;;;;;6.42;87.09;99405.94;5113820;28;20030;-78
2021/03/30 02:55:00;;;;;;;16.00;10.80;;;;;;;6.43;87.46;99406.78;5114369;28;20019;-78
2021/03/30 02:57:26;;;;;;;15.55;10.05;;;;;;;6.30;87.75;99402.38;5114504;28;20024;-78
2021/03/30 02:59:54;;;;;;;19.58;10.43;;;;;;;6.25;88.06;99402.25;5095908;28;20019;-78
2021/03/30 03:02:20;;;;;;;15.38;10.70;;;;;;;6.26;87.73;99397.66;5095431;28;20039;-79
2021/03/30 03:04:48;;;;;;;15.73;9.57;;;;;;;6.24;87.33;99402.47;5095473;28;20027;-77
2021/03/30 03:07:15;;;;;;;17.33;11.70;;;;;;;6.31;87.15;99406.75;5098950;28;20020;-78
2021/03/30 03:09:41;;;;;;;14.38;10.63;;;;;;;6.36;86.96;99406.88;5067240;28;20091;-79
2021/03/30 03:12:08;;;;;;;19.65;9.98;;;;;;;6.27;87.44;99402.00;5094647;28;20016;-79
2021/03/30 03:14:35;;;;;;;11.80;9.25;;;;;;;6.39;86.92;99403.69;5073100;28;20032;-78
2021/03/30 03:17:01;;;;;;;13.75;10.25;;;;;;;6.12;87.35;99407.88;5073168;28;20512;-77
2021/03/30 03:19:27;;;;;;;14.05;9.40;;;;;;;6.18;87.59;99392.53;5073414;28;20481;-78
2021/03/30 03:21:54;;;;;;;14.63;9.73;;;;;;;6.27;87.18;99405.56;5054873;28;20029;-79
2021/03/30 03:24:20;;;;;;;15.27;10.70;;;;;;;6.20;87.20;99402.09;5054771;28;20382;-78
2021/03/30 03:26:45;;;;;;;17.77;10.77;;;;;;;6.07;87.91;99402.31;5092498;28;20452;-78
2021/03/30 03:29:15;;;;;;;13.90;10.02;;;;;;;6.11;87.73;99408.91;5092637;28;20068;-79
2021/03/30 03:31:41;;;;;;;18.50;12.48;;;;;;;6.05;87.64;99409.84;5092734;28;20506;-77
2021/03/30 03:34:07;;;;;;;22.23;10.95;;;;;;;5.90;88.51;99402.09;5092370;28;20028;-77
2021/03/30 03:36:43;;;;;;;20.30;9.70;;;;;;;5.88;89.03;99408.84;5091514;28;20035;-77
2021/03/30 03:39:13;;;;;;;17.40;10.90;;;;;;;6.00;88.48;99406.16;5092617;28;20095;-79
2021/03/30 03:41:39;;;;;;;18.05;11.25;;;;;;;5.92;88.81;99404.59;5093295;28;20563;-78
2021/03/30 03:44:06;;;;;;;15.95;9.75;;;;;;;5.97;88.85;99402.03;5092264;28;20522;-79
2021/03/30 03:46:32;;;;;;;17.70;9.25;;;;;;;5.87;88.94;99391.72;5092387;28;20056;-79
2021/03/30 03:48:57;;;;;;;14.20;9.95;;;;;;;5.73;89.29;99392.09;5074167;28;20066;-78
2021/03/30 03:51:23;;;;;;;19.92;11.32;;;;;;;5.53;90.21;99392.34;5075740;28;20060;-81
2021/03/30 03:53:51;;;;;;;22.40;13.00;;;;;;;5.57;91.05;99403.56;5074028;28;20016;-78
2021/03/30 03:56:23;;;;;;;18.77;11.63;;;;;;;5.73;90.75;99402.94;5073504;28;20122;-79
2021/03/30 03:58:56;;;;;;;14.27;11.18;;;;;;;5.72;90.18;99404.84;5091792;28;20053;-78
2021/03/30 04:01:30;;;;;;;14.50;10.77;;;;;;;5.72;90.41;99412.13;5088163;28;20020;-78
2021/03/30 04:04:01;;;;;;;23.33;11.18;;;;;;;5.83;89.65;99404.03;5071943;28;20028;-78
2021/03/30 04:06:31;;;;;;;15.50;10.63;;;;;;;5.86;89.37;99397.34;5071889;28;20033;-80
2021/03/30 04:08:59;;;;;;;13.48;10.40;;;;;;;5.72;89.42;99404.00;5072478;28;20112;-83
2021/03/30 04:11:24;;;;;;;18.42;10.80;;;;;;;5.66;90.20;99404.91;5054359;28;20028;-84
2021/03/30 04:13:51;;;;;;;13.98;9.45;;;;;;;5.78;89.38;99408.50;5054723;28;20116;-81
2021/03/30 04:16:17;;;;;;;14.98;11.18;;;;;;;5.53;90.39;99418.63;5071768;28;20611;-79
2021/03/30 04:18:43;;;;;;;17.08;13.02;;;;;;;5.32;91.21;99420.75;5071741;28;20036;-79
2021/03/30 04:21:19;;;;;;;18.20;12.48;;;;;;;5.23;91.86;99421.28;5071605;28;20116;-78
2021/03/30 04:23:46;;;;;;;16.02;12.20;;;;;;;5.35;91.97;99419.47;5053192;28;20020;-79
2021/03/30 04:26:12;;;;;;;14.65;11.02;;;;;;;5.45;91.44;99427.91;5053782;28;20056;-77
2021/03/30 04:28:38;;;;;;;21.70;11.90;;;;;;;5.52;91.09;99420.50;5071758;28;20123;-78
2021/03/30 04:31:04;;;;;;;17.80;11.90;;;;;;;5.56;90.80;99429.88;5077518;28;20035;-82
2021/03/30 04:33:32;;;;;;;22.58;14.15;;;;;;;5.58;90.59;99424.19;5092449;28;20016;-77
2021/03/30 04:35:58;;;;;;;23.05;12.25;;;;;;;5.69;89.99;99435.16;5089837;28;20511;-79
2021/03/30 04:38:27;;;;;;;17.17;12.10;;;;;;;5.56;90.74;99426.31;5089918;28;20119;-77
2021/03/30 04:40:55;;;;;;;18.75;11.77;;;;;;;5.59;90.98;99451.13;5089839;28;20051;-79
2021/03/30 04:43:26;;;;;;;16.75;12.95;;;;;;;5.39;91.34;99436.94;5088193;28;20061;-78
2021/03/30 04:45:52;;;;;;;22.02;11.02;;;;;;;5.43;91.82;99438.16;5071828;28;20020;-79
2021/03/30 04:48:18;;;;;;;15.10;11.57;;;;;;;5.48;91.62;99435.63;5072377;28;20047;-82
2021/03/30 04:50:48;;;;;;;18.50;12.63;;;;;;;5.50;91.40;99433.50;5093145;28;20028;-81
2021/03/30 04:53:16;;;;;;;19.40;10.27;;;;;;;5.58;90.62;99426.91;5076804;28;20078;-75
2021/03/30 04:55:42;;;;;;;18.23;10.30;;;;;;;5.61;90.90;99442.75;5073421;28;20114;-76
2021/03/30 04:58:07;;;;;;;15.75;10.32;;;;;;;5.58;91.26;99441.31;5079929;28;20119;-76
2021/03/30 05:00:36;;;;;;;22.00;11.00;;;;;;;5.66;91.27;99448.34;5073254;28;20016;-75
2021/03/30 05:03:01;;;;;;;21.90;11.73;;;;;;;5.68;90.80;99457.06;5072874;28;20028;-76
2021/03/30 05:05:26;;;;;;;19.65;11.02;;;;;;;5.68;90.77;99448.94;5084029;28;20148;-77
2021/03/30 05:07:52;;;;;;;15.10;10.48;;;;;;;5.81;90.33;99449.59;5086288;28;20029;-74
2021/03/30 05:10:18;;;;;;;16.77;11.65;;;;;;;5.93;89.98;99464.09;5095347;28;20024;-78
2021/03/30 05:12:43;;;;;;;20.20;11.23;;;;;;;5.99;90.25;99459.63;5095072;28;20028;-76
2021/03/30 05:15:09;;;;;;;17.23;10.13;;;;;;;6.16;89.52;99463.41;5075330;28;20092;-76
2021/03/30 05:17:35;;;;;;;28.95;10.13;;;;;;;6.13;89.38;99463.03;5075673;28;20145;-77
2021/03/30 05:20:05;;;;;;;19.27;11.75;;;;;;;6.15;89.36;99466.31;5076177;28;20024;-77
2021/03/30 05:22:31;;;;;;;16.73;10.20;;;;;;;6.13;89.10;99466.56;5096674;28;20050;-85
2021/03/30 05:25:01;;;;;;;16.52;10.27;;;;;;;6.09;88.98;99459.94;5095910;28;20067;-75
2021/03/30 05:27:30;;;;;;;17.60;11.63;;;;;;;6.08;89.08;99460.16;5097215;28;20474;-73
2021/03/30 05:29:56;;;;;;;17.65;10.98;;;;;;;6.12;89.21;99481.19;5114204;28;20034;-73
2021/03/30 05:32:21;;;;;;;20.38;10.95;;;;;;;6.14;89.17;99479.06;5114276;28;20023;-74
2021/03/30 05:34:48;;;;;;;15.73;10.50;;;;;;;6.18;89.83;99474.84;5079531;28;20029;-73
2021/03/30 05:37:14;;;;;;;14.57;10.48;;;;;;;6.27;89.65;99472.63;5078284;28;20106;-73
2021/03/30 05:39:39;;;;;;;18.95;10.82;;;;;;;6.31;89.16;99468.41;5082501;28;20040;-74
2021/03/30 05:42:06;;;;;;;15.52;11.23;;;;;;;6.70;87.94;99481.44;5075292;28;20024;-73
2021/03/30 05:44:34;;;;;;;15.65;10.27;;;;;;;6.83;87.17;99488.53;5093652;28;20110;-74
2021/03/30 05:49:35;;;;;;;16.40;11.48;;;;;;;7.02;86.20;99471.06;5093585;28;20028;-74
2021/03/30 05:52:01;;;;;;;21.60;11.68;;;;;;;7.03;85.92;99483.59;5093596;28;20043;-74
2021/03/30 05:54:34;;;;;;;15.70;10.30;;;;;;;7.21;85.96;99488.13;5067210;28;20028;-75
2021/03/30 05:57:02;;;;;;;25.63;11.82;;;;;;;7.32;85.14;99488.13;5089167;28;20036;-74
2021/03/30 05:59:30;;;;;;;18.05;11.57;;;;;;;7.21;84.18;99491.66;5098385;28;20489;-74
2021/03/30 06:01:57;;;;;;;18.25;11.80;;;;;;;7.20;84.41;99490.03;5097875;28;20074;-77
2021/03/30 06:04:23;;;;;;;19.92;11.73;;;;;;;7.42;84.31;99499.25;5096081;28;20028;-74
2021/03/30 06:06:49;;;;;;;18.73;9.60;;;;;;;7.40;82.08;99495.94;5075132;28;20019;-74
2021/03/30 06:09:18;;;;;;;22.73;12.13;;;;;;;7.67;81.28;99500.91;5074745;28;20393;-74
2021/03/30 06:11:43;;;;;;;17.63;10.18;;;;;;;7.78;81.03;99492.72;5091206;28;20169;-73
2021/03/30 06:14:08;;;;;;;14.90;10.25;;;;;;;8.10;79.55;99504.03;5092813;28;20448;-73
2021/03/30 06:16:37;;;;;;;19.98;11.98;;;;;;;7.98;79.18;99501.34;5074525;28;20195;-74
2021/03/30 06:19:17;;;;;;;17.65;11.35;;;;;;;8.05;79.56;99503.91;5092856;28;20016;-73
2021/03/30 06:21:59;;;;;;;19.98;10.63;;;;;;;8.03;79.42;99501.44;5090789;28;20539;-74
2021/03/30 06:24:26;;;;;;;18.13;10.90;;;;;;;8.19;78.13;99499.84;5073096;28;20124;-74
2021/03/30 06:26:56;;;;;;;15.27;11.05;;;;;;;8.19;78.06;99496.28;5091140;28;20034;-74
2021/03/30 06:29:34;;;;;;;18.23;10.90;;;;;;;8.54;76.72;99510.66;5072428;28;20028;-74
2021/03/30 06:32:04;;;;;;;21.38;12.98;;;;;;;8.88;74.69;99511.56;5072687;28;20039;-75
2021/03/30 06:34:31;;;;;;;26.23;14.07;;;;;;;9.02;73.99;99515.63;5073509;28;20452;-74
2021/03/30 06:36:57;;;;;;;21.63;12.55;;;;;;;9.35;73.62;99512.91;5073928;28;20489;-73
2021/03/30 06:39:34;;;;;;;22.33;12.88;;;;;;;10.05;70.54;99506.81;5092206;28;20081;-76
2021/03/30 06:42:05;;;;;;;23.45;10.85;;;;;;;10.00;71.37;99523.13;5092412;28;20024;-73
2021/03/30 06:44:34;;;;;;;18.13;11.85;;;;;;;9.89;70.01;99522.19;5092834;28;20032;-74
2021/03/30 06:47:13;;;;;;;22.08;11.55;;;;;;;9.73;70.15;99519.47;5074254;28;20035;-74
2021/03/30 06:49:51;;;;;;;18.60;9.95;;;;;;;9.95;70.09;99526.66;5091938;28;20033;-73
2021/03/30 06:52:34;;;;;;;18.15;12.20;;;;;;;9.95;69.69;99521.19;5092000;28;20092;-74
2021/03/30 06:55:00;;;;;;;18.25;11.52;;;;;;;10.02;69.78;99532.72;5071727;28;20025;-74
2021/03/30 06:57:45;;;;;;;23.15;10.75;;;;;;;10.37;69.31;99528.88;5054014;28;20055;-74
2021/03/30 07:00:19;;;;;;;17.95;10.93;;;;;;;10.52;69.00;99524.41;5072452;28;20028;-73
2021/03/30 07:02:47;;;;;;;18.17;10.23;;;;;;;10.73;70.46;99523.53;5086701;28;20031;-72
2021/03/30 07:05:25;;;;;;;20.63;11.35;;;;;;;10.61;68.87;99522.84;5091793;28;20040;-72
2021/03/30 07:07:58;;;;;;;17.23;11.45;;;;;;;10.90;66.13;99528.09;5073249;28;20338;-73
2021/03/30 07:10:24;;;;;;;17.27;11.02;;;;;;;11.07;66.30;99526.03;5091396;28;20036;-74
2021/03/30 07:12:51;;;;;;;18.77;10.63;;;;;;;11.14;64.71;99523.94;5091903;28;20056;-73
2021/03/30 07:15:19;;;;;;;25.23;10.02;;;;;;;11.31;64.15;99516.38;5090713;28;20016;-73
2021/03/30 07:17:54;;;;;;;15.98;11.27;;;;;;;11.87;61.75;99505.88;5092206;28;20064;-74
2021/03/30 07:20:20;;;;;;;17.17;9.90;;;;;;;12.30;60.57;99516.50;5092426;28;20384;-73
2021/03/30 07:22:48;;;;;;;15.75;9.85;;;;;;;12.58;59.28;99518.81;5074122;28;20107;-73
2021/03/30 07:25:21;;;;;;;17.65;10.63;;;;;;;13.18;57.83;99517.31;5091621;28;20035;-74
2021/03/30 07:27:57;;;;;;;18.88;10.55;;;;;;;13.48;56.85;99528.31;5073469;28;20059;-73
2021/03/30 07:30:25;;;;;;;18.60;12.13;;;;;;;13.45;56.18;99523.34;5073671;28;20093;-74
2021/03/30 07:33:03;;;;;;;15.52;9.52;;;;;;;13.87;56.01;99521.13;5091940;28;20107;-74
2021/03/30 07:35:30;;;;;;;13.80;9.65;;;;;;;14.13;54.03;99521.84;5091500;28;20485;-76
2021/03/30 07:38:14;;;;;;;16.02;9.48;;;;;;;14.44;53.17;99523.44;5091750;28;20091;-75
2021/03/30 07:40:41;;;;;;;15.75;10.75;;;;;;;14.48;54.00;99520.94;5072864;28;20032;-73
2021/03/30 07:43:09;;;;;;;16.85;10.68;;;;;;;14.45;53.04;99504.97;5091601;28;20032;-74
2021/03/30 07:45:38;;;;;;;16.25;9.75;;;;;;;14.08;55.94;99515.56;5091334;28;20499;-73
2021/03/30 07:48:05;;;;;;;16.30;10.73;;;;;;;13.82;54.96;99518.38;5072519;28;20110;-73
2021/03/30 07:53:56;;;;;;;18.73;10.77;;;;;;;14.19;55.04;99517.97;5066865;28;20035;-74
2021/03/30 07:56:24;;;;;;;18.47;9.77;;;;;;;15.79;50.05;99513.69;5090963;28;20502;-73
2021/03/30 07:58:51;;;;;;;19.70;10.43;;;;;;;15.67;49.19;99518.78;5090776;28;20276;-76
2021/03/30 08:01:22;;;;;;;19.88;9.70;;;;;;;16.55;46.65;99505.41;5072556;28;20036;-74
2021/03/30 08:03:49;;;;;;;13.65;9.07;;;;;;;17.15;45.10;99512.00;5072834;28;20124;-74
2021/03/30 08:06:26;;;;;;;12.38;8.52;;;;;;;18.09;42.44;99501.56;5090536;28;20024;-74
2021/03/30 08:08:59;;;;;;;12.63;9.90;;;;;;;18.41;42.07;99514.50;5090068;28;20480;-73
2021/03/30 08:11:37;;;;;;;12.43;8.90;;;;;;;18.58;41.04;99514.72;5072034;28;20162;-72
2021/03/30 08:14:03;;;;;;;12.95;8.82;;;;;;;19.09;40.41;99515.25;5090885;28;20035;-74
2021/03/30 08:16:29;;;;;;;12.75;8.15;;;;;;;20.35;37.53;99515.94;5090618;28;20495;-73
2021/03/30 08:18:58;;;;;;;13.77;8.70;;;;;;;20.61;36.72;99514.09;5072055;28;20165;-74
2021/03/30 08:21:23;;;;;;;10.07;7.40;;;;;;;20.01;37.08;99522.97;5071648;28;20360;-76
2021/03/30 08:23:51;;;;;;;11.15;7.90;;;;;;;19.76;37.69;99516.13;5090049;28;20122;-77
2021/03/30 08:26:17;;;;;;;17.40;9.38;;;;;;;20.23;37.24;99522.09;5071758;28;20016;-73
2021/03/30 08:28:48;;;;;;;13.15;8.98;;;;;;;20.43;37.29;99512.38;5089860;28;20024;-76
2021/03/30 08:31:16;;;;;;;10.82;8.30;;;;;;;21.65;35.13;99521.38;5089691;28;20087;-75
2021/03/30 08:33:42;;;;;;;9.88;7.35;;;;;;;20.73;38.27;99514.28;5071633;28;20036;-74
2021/03/30 08:36:15;;;;;;;13.98;7.75;;;;;;;20.76;36.37;99519.19;5089854;28;20464;-75
2021/03/30 08:38:43;;;;;;;13.25;6.72;;;;;;;20.43;36.27;99515.16;5071620;28;20067;-76
2021/03/30 08:41:09;;;;;;;11.30;7.90;;;;;;;20.47;35.86;99525.31;5070765;28;20114;-76
2021/03/30 08:43:34;;;;;;;10.40;8.60;;;;;;;20.66;36.86;99513.91;5071730;28;20099;-75
2021/03/30 08:46:02;;;;;;;14.38;8.35;;;;;;;20.05;37.34;99510.03;5071345;28;20032;-75
2021/03/30 08:48:51;;;;;;;15.30;8.77;;;;;;;20.63;36.16;99514.56;5089424;28;20024;-75
2021/03/30 08:51:19;;;;;;;17.35;8.27;;;;;;;21.03;35.33;99518.91;5089904;28;20493;-75
2021/03/30 08:53:45;;;;;;;11.10;7.78;;;;;;;21.60;34.92;99505.66;5089806;28;20077;-73
2021/03/30 08:56:12;;;;;;;17.13;8.55;;;;;;;23.01;33.61;99508.09;5089573;28;20407;-76
2021/03/30 08:58:48;;;;;;;11.60;8.60;;;;;;;22.23;33.47;99509.63;5071772;28;20047;-76
2021/03/30 09:01:13;;;;;;;14.70;8.52;;;;;;;22.70;32.89;99505.66;5089588;28;20034;-75
2021/03/30 09:03:41;;;;;;;13.18;8.52;;;;;;;23.32;31.10;99500.13;5090060;28;20024;-75
2021/03/30 09:06:26;;;;;;;10.48;8.25;;;;;;;22.14;33.14;99498.53;5071795;28;20085;-75
2021/03/30 09:08:51;;;;;;;13.10;7.93;;;;;;;22.31;33.22;99478.91;5071474;28;20032;-74
2021/03/30 09:11:24;;;;;;;11.43;7.80;;;;;;;23.40;30.95;99478.88;5070962;28;20073;-75
2021/03/30 09:14:22;;;;;;;16.70;7.25;;;;;;;22.19;31.87;99492.75;5071755;28;20061;-74
2021/03/30 09:16:50;;;;;;;11.55;7.57;;;;;;;24.18;29.93;99499.31;5038229;28;20443;-74
2021/03/30 09:19:34;;;;;;;14.95;8.38;;;;;;;23.60;30.97;99492.00;5089325;28;20434;-74
2021/03/30 09:22:05;;;;;;;11.18;7.07;;;;;;;23.38;30.82;99481.16;5071504;28;20039;-74
2021/03/30 09:27:11;;;;;;;8.80;7.00;;;;;;;24.86;29.57;99485.56;5072914;28;20036;-76
2021/03/30 09:29:37;;;;;;;10.35;7.07;;;;;;;25.01;27.72;99482.03;5071553;28;20077;-75
2021/03/30 09:32:04;;;;;;;14.98;7.85;;;;;;;24.19;29.33;99481.34;5073717;28;20035;-76
2021/03/30 09:34:30;;;;;;;14.73;8.32;;;;;;;24.56;28.72;99472.97;5096597;28;20031;-77
2021/03/30 09:36:58;;;;;;;15.57;8.68;;;;;;;23.64;30.72;99478.16;5079350;28;20044;-75
2021/03/30 09:39:25;;;;;;;12.32;7.93;;;;;;;23.32;30.60;99469.41;5075848;28;20568;-76
2021/03/30 09:41:53;;;;;;;10.88;7.53;;;;;;;25.15;28.20;99468.47;5091642;28;20036;-77
2021/03/30 09:44:20;;;;;;;9.75;7.18;;;;;;;25.24;28.00;99463.53;5072099;28;20034;-76
2021/03/30 09:46:51;;;;;;;15.68;8.88;;;;;;;24.17;29.33;99464.09;5090407;28;20097;-75
2021/03/30 09:49:20;;;;;;;13.95;7.75;;;;;;;25.07;28.30;99452.63;5076299;28;20528;-76
2021/03/30 09:51:46;;;;;;;10.60;7.32;;;;;;;25.11;27.00;99436.75;5075296;28;20177;-74
2021/03/30 09:54:21;;;;;;;10.10;6.85;;;;;;;26.12;26.25;99451.19;5075719;28;20621;-75
2021/03/30 09:56:47;;;;;;;;;;;;;;;24.74;27.52;99438.78;5074349;28;20111;-75
2021/03/30 09:59:19;;;;;;;13.48;6.70;;;;;;;24.84;27.50;99438.31;5092712;28;20061;-77
2021/03/30 10:01:44;;;;;;;11.15;6.35;;;;;;;24.30;27.62;99434.97;5085738;28;20017;-74
2021/03/30 10:04:10;;;;;;;11.63;7.40;;;;;;;24.24;27.82;99439.19;5054498;28;20028;-74
2021/03/30 10:06:36;;;;;;;14.05;6.45;;;;;;;25.11;26.42;99425.53;5072799;28;20028;-74
2021/03/30 10:09:06;;;;;;;7.65;5.95;;;;;;;25.56;26.05;99434.47;5072478;28;20397;-76
2021/03/30 10:11:33;;;;;;;10.32;5.75;;;;;;;26.38;25.50;99423.41;5057567;28;20016;-74
2021/03/30 10:14:23;;;;;;;12.10;5.80;;;;;;;24.38;26.61;99422.84;5092666;28;20591;-74
2021/03/30 10:16:51;;;;;;;13.75;5.90;;;;;;;24.17;26.78;99424.13;5092398;28;20038;-75
2021/03/30 10:19:16;;;;;;;10.93;5.38;;;;;;;23.85;26.69;99403.44;5074528;28;20084;-75
2021/03/30 10:21:43;;;;;;;10.77;5.25;;;;;;;24.58;26.28;99409.88;5074276;28;20024;-76
2021/03/30 10:24:17;;;;;;;11.35;4.68;;;;;;;25.03;26.26;99402.09;5073753;28;20058;-74
2021/03/30 10:26:59;;;;;;;6.07;4.63;;;;;;;25.30;25.24;99406.09;5074064;28;20363;-74
2021/03/30 10:29:31;;;;;;;11.07;5.22;;;;;;;24.79;25.49;99395.72;5092237;28;20038;-76
2021/03/30 10:32:04;;;;;;;9.68;4.82;;;;;;;25.50;24.63;99393.03;5091991;28;20392;-77
2021/03/30 10:34:33;;;;;;;11.77;4.72;;;;;;;25.10;25.22;99389.47;5073770;28;20028;-73
2021/03/30 10:49:56;;;;;;;5.95;2.20;;;;;;;27.92;19.41;99379.31;5010036;27;1143553;-79
2021/03/30 10:54:55;;;;;;;4.25;2.50;;;;;;;26.93;19.76;99368.94;5050476;28;20035;-76
2021/03/30 10:57:23;;;;;;;5.18;2.95;;;;;;;26.31;21.00;99363.50;5048087;28;20033;-76
2021/03/30 10:59:48;;;;;;;9.95;5.60;;;;;;;26.71;20.45;99357.59;5047530;28;20036;-77
2021/03/30 11:02:15;;;;;;;3.67;3.10;;;;;;;26.00;20.01;99350.31;5047770;28;20037;-78
2021/03/30 11:04:41;;;;;;;4.40;1.90;;;;;;;26.22;19.79;99352.44;5030378;28;20029;-79
2021/03/30 11:07:08;;;;;;;3.42;2.53;;;;;;;24.71;21.36;99333.13;5048358;28;20033;-78
2021/03/30 11:09:34;;;;;;;6.78;2.17;;;;;;;23.03;22.80;99341.03;5047636;28;20029;-77
2021/03/30 11:12:00;;;;;;;4.03;2.25;;;;;;;22.34;22.59;99324.88;5047127;28;20538;-80
2021/03/30 11:14:26;;;;;;;3.55;2.15;;;;;;;22.31;23.33;99314.38;5047061;28;20104;-80
2021/03/30 11:16:53;;;;;;;3.20;2.22;;;;;;;22.24;24.16;99308.53;5046660;28;20029;-80
2021/03/30 11:19:19;;;;;;;4.28;2.13;;;;;;;22.58;24.36;99309.44;5028580;28;20029;-79
2021/03/30 11:21:45;;;;;;;6.53;2.33;;;;;;;22.12;24.56;99311.25;5041930;28;20032;-73
2021/03/30 11:24:20;;;;;;;4.55;2.30;;;;;;;21.98;24.86;99296.75;5042907;28;20017;-73
2021/03/30 11:26:49;;;;;;;5.30;2.00;;;;;;;21.75;25.28;99300.94;5044823;28;20017;-73
2021/03/30 11:29:27;;;;;;;6.68;2.70;;;;;;;21.73;24.82;99286.53;5044623;28;20478;-73
2021/03/30 11:34:49;;;;;;;3.53;2.17;;;;;;;22.19;24.94;99283.66;5047473;28;20108;-75
2021/03/30 11:39:40;;;;;;;6.63;2.00;;;;;;;21.56;24.71;99286.63;5046354;28;20035;-75
2021/03/30 11:42:07;;;;;;;7.82;2.50;;;;;;;21.86;24.96;99279.91;5045580;28;20022;-74
2021/03/30 11:44:33;;;;;;;3.42;1.90;;;;;;;21.66;24.21;99273.13;5045225;28;20077;-74
2021/03/30 11:46:59;;;;;;;2.03;1.85;;;;;;;21.57;24.74;99266.81;5045952;28;20028;-74
2021/03/30 11:49:27;;;;;;;4.22;1.77;;;;;;;21.82;24.83;99262.22;5040567;28;20480;-73
2021/03/30 11:51:53;;;;;;;3.00;2.10;;;;;;;21.34;25.17;99265.41;5031061;28;20571;-74
2021/03/30 11:54:19;;;;;;;8.10;2.33;;;;;;;21.21;25.10;99250.56;5028252;28;20049;-77
2021/03/30 11:56:44;;;;;;;5.93;2.85;;;;;;;21.31;24.93;99244.63;5030989;28;20053;-75
2021/03/30 11:59:10;;;;;;;2.60;1.77;;;;;;;21.41;25.08;99249.00;5031129;28;20021;-73
2021/03/30 12:01:35;;;;;;;1.90;1.40;;;;;;;21.36;23.95;99244.44;5030952;28;20021;-73
2021/03/30 12:04:00;;;;;;;3.15;1.60;;;;;;;21.19;24.31;99243.72;5031067;28;20132;-72
2021/03/30 12:06:26;;;;;;;2.10;1.85;;;;;;;21.19;24.20;99225.03;5030462;28;20588;-72